Time;durP1;ratioP1;P1;durP2;ratioP2;P2;SDS_P1;SDS_P2;PMS_P1;PMS_P2;Temp;Humidity;BMP_temperature;BMP_pressure;BME280_temperature;BME280_humidity;BME280_pressure;Samples;Min_cycle;Max_cycle;Signal;HPM_P1;HPM_P2
2022/12/10 00:02:18;;;;;;;94.97;28.75;;;;;;;;;;5076700;28;20216;-76
2022/12/10 00:04:45;;;;;;;97.70;29.15;;;;;;;;;;5077015;28;20215;-78
2022/12/10 00:07:12;;;;;;;94.82;27.75;;;;;;;;;;5077228;28;20207;-77
2022/12/10 00:09:40;;;;;;;94.97;28.50;;;;;;;;;;5076292;28;20260;-78
2022/12/10 00:12:07;;;;;;;92.38;28.17;;;;;;;;;;5076683;28;20214;-77
2022/12/10 00:14:34;;;;;;;95.07;28.85;;;;;;;;;;5077036;28;20211;-77
2022/12/10 00:17:02;;;;;;;91.00;28.35;;;;;;;;;;5076932;28;20662;-77
2022/12/10 00:19:29;;;;;;;94.97;29.02;;;;;;;;;;5076442;28;20239;-77
2022/12/10 00:21:57;;;;;;;92.05;27.67;;;;;;;;;;5076921;28;20212;-77
2022/12/10 00:24:24;;;;;;;93.80;29.85;;;;;;;;;;5077049;28;20206;-78
2022/12/10 00:26:51;;;;;;;95.15;26.55;;;;;;;;;;5076776;28;20216;-76
2022/12/10 00:29:18;;;;;;;97.65;28.45;;;;;;;;;;5076245;28;20239;-77
2022/12/10 00:31:46;;;;;;;97.50;27.48;;;;;;;;;;5077189;28;20211;-76
2022/12/10 00:34:14;;;;;;;93.95;28.80;;;;;;;;;;5076630;28;20196;-77
2022/12/10 00:36:43;;;;;;;92.43;27.55;;;;;;;;;;5076405;28;20212;-76
2022/12/10 00:39:10;;;;;;;93.28;28.27;;;;;;;;;;5075002;28;20212;-77
2022/12/10 00:41:37;;;;;;;95.60;28.30;;;;;;;;;;5075530;28;20625;-77
2022/12/10 00:44:05;;;;;;;99.68;29.50;;;;;;;;;;5074810;28;20616;-77
2022/12/10 00:46:32;;;;;;;94.55;26.83;;;;;;;;;;5075442;28;20212;-77
2022/12/10 00:48:59;;;;;;;90.18;26.80;;;;;;;;;;5075264;28;20222;-77
2022/12/10 00:51:29;;;;;;;91.32;27.25;;;;;;;;;;5075117;28;20683;-77
2022/12/10 00:53:57;;;;;;;93.00;27.83;;;;;;;;;;5075437;28;20293;-76
2022/12/10 00:56:25;;;;;;;96.80;28.50;;;;;;;;;;5075540;28;20213;-77
2022/12/10 00:58:53;;;;;;;95.43;27.92;;;;;;;;;;5074654;28;20199;-77
2022/12/10 01:01:22;;;;;;;92.18;26.95;;;;;;;;;;5075890;28;20256;-75
2022/12/10 01:03:51;;;;;;;95.28;28.13;;;;;;;;;;5075516;28;20297;-77
2022/12/10 01:06:19;;;;;;;95.55;28.27;;;;;;;;;;5075204;28;20648;-77
2022/12/10 01:08:48;;;;;;;85.47;24.30;;;;;;;;;;5074497;28;20379;-77
2022/12/10 01:11:16;;;;;;;89.63;25.33;;;;;;;;;;5075464;28;20703;-77
2022/12/10 01:13:43;;;;;;;95.60;26.77;;;;;;;;;;5075170;28;20734;-77
2022/12/10 01:16:12;;;;;;;92.18;27.27;;;;;;;;;;5075575;28;20296;-77
2022/12/10 01:18:39;;;;;;;93.38;28.58;;;;;;;;;;5074073;28;20208;-77
2022/12/10 01:21:07;;;;;;;89.82;26.17;;;;;;;;;;5075038;28;20222;-77
2022/12/10 01:23:35;;;;;;;90.25;26.30;;;;;;;;;;5074845;28;20242;-76
2022/12/10 01:26:04;;;;;;;94.57;27.75;;;;;;;;;;5074867;28;20225;-77
2022/12/10 01:28:33;;;;;;;90.25;26.75;;;;;;;;;;5074602;28;20227;-76
2022/12/10 01:31:04;;;;;;;91.97;26.65;;;;;;;;;;5074928;28;20234;-77
2022/12/10 01:33:31;;;;;;;91.53;26.85;;;;;;;;;;5074492;28;20216;-75
2022/12/10 01:35:58;;;;;;;97.63;28.33;;;;;;;;;;5062887;28;20446;-75
2022/12/10 01:38:25;;;;;;;91.70;26.23;;;;;;;;;;5051637;28;20233;-75
2022/12/10 01:40:52;;;;;;;87.82;25.67;;;;;;;;;;5051719;28;20229;-77
2022/12/10 01:43:20;;;;;;;89.72;25.05;;;;;;;;;;5052750;28;20211;-76
2022/12/10 01:45:48;;;;;;;95.95;26.95;;;;;;;;;;5052789;28;20625;-77
2022/12/10 01:48:16;;;;;;;89.53;26.58;;;;;;;;;;5053906;28;20222;-75
2022/12/10 01:50:43;;;;;;;87.90;25.23;;;;;;;;;;5052484;28;20225;-76
2022/12/10 01:53:10;;;;;;;89.30;24.38;;;;;;;;;;5053183;28;20231;-77
2022/12/10 01:55:39;;;;;;;91.88;27.15;;;;;;;;;;5052735;28;20300;-77
2022/12/10 01:58:07;;;;;;;89.47;25.50;;;;;;;;;;5052729;28;20203;-77
2022/12/10 02:00:36;;;;;;;86.75;23.63;;;;;;;;;;5051970;28;20259;-76
2022/12/10 02:03:09;;;;;;;89.75;23.55;;;;;;;;;;5052753;28;20212;-76
2022/12/10 02:05:38;;;;;;;89.50;24.85;;;;;;;;;;5052553;28;20678;-76
2022/12/10 02:08:10;;;;;;;88.57;24.35;;;;;;;;;;5052695;28;20592;-74
2022/12/10 02:10:43;;;;;;;93.13;24.70;;;;;;;;;;5051854;28;20232;-76
2022/12/10 02:13:13;;;;;;;85.95;24.63;;;;;;;;;;5052475;28;20208;-76
2022/12/10 02:15:42;;;;;;;86.15;23.30;;;;;;;;;;5052381;28;20213;-76
2022/12/10 02:18:13;;;;;;;87.45;24.20;;;;;;;;;;5052477;28;20207;-76
2022/12/10 02:20:42;;;;;;;93.22;25.98;;;;;;;;;;5051671;28;20253;-76
2022/12/10 02:23:10;;;;;;;94.80;25.38;;;;;;;;;;5052452;28;20607;-76
2022/12/10 02:25:40;;;;;;;86.15;24.85;;;;;;;;;;5048370;28;20585;-76
2022/12/10 02:28:12;;;;;;;85.30;22.55;;;;;;;;;;5052222;28;20663;-76
2022/12/10 02:30:41;;;;;;;90.45;23.60;;;;;;;;;;5051564;28;20235;-76
2022/12/10 02:33:09;;;;;;;84.88;23.88;;;;;;;;;;5052186;28;20579;-75
2022/12/10 02:35:38;;;;;;;86.57;23.15;;;;;;;;;;5051922;28;20206;-76
2022/12/10 02:38:08;;;;;;;91.53;22.70;;;;;;;;;;5052235;28;20577;-76
2022/12/10 02:40:36;;;;;;;88.60;25.85;;;;;;;;;;5051235;28;20230;-76
2022/12/10 02:43:04;;;;;;;86.35;22.70;;;;;;;;;;5051976;28;20563;-77
2022/12/10 02:45:32;;;;;;;87.95;24.58;;;;;;;;;;5052441;28;20211;-76
2022/12/10 02:48:01;;;;;;;87.28;22.77;;;;;;;;;;5051851;28;20206;-76
2022/12/10 02:50:28;;;;;;;88.38;23.38;;;;;;;;;;5051043;28;20255;-76
2022/12/10 02:52:56;;;;;;;84.78;22.25;;;;;;;;;;5052280;28;20201;-76
2022/12/10 02:55:23;;;;;;;90.50;23.38;;;;;;;;;;5051754;28;20402;-76
2022/12/10 02:57:56;;;;;;;89.85;26.42;;;;;;;;;;5051778;28;20204;-76
2022/12/10 03:00:25;;;;;;;89.25;25.58;;;;;;;;;;5051086;28;20230;-76
2022/12/10 03:03:01;;;;;;;88.38;25.58;;;;;;;;;;5051650;28;20211;-76
2022/12/10 03:05:34;;;;;;;90.22;26.25;;;;;;;;;;5052026;28;20203;-76
2022/12/10 03:08:05;;;;;;;86.82;24.38;;;;;;;;;;5053061;28;20210;-76
2022/12/10 03:10:35;;;;;;;92.40;27.80;;;;;;;;;;5055090;28;20299;-76
2022/12/10 03:13:04;;;;;;;87.13;24.05;;;;;;;;;;5055657;28;20216;-76
2022/12/10 03:15:34;;;;;;;90.57;25.33;;;;;;;;;;5055992;28;20207;-76
2022/12/10 03:18:02;;;;;;;88.50;23.63;;;;;;;;;;5055558;28;20206;-76
2022/12/10 03:20:33;;;;;;;88.53;24.33;;;;;;;;;;5054858;28;20230;-76
2022/12/10 03:23:00;;;;;;;88.20;24.95;;;;;;;;;;5055710;28;20216;-75
2022/12/10 03:25:29;;;;;;;88.28;25.25;;;;;;;;;;5055546;28;20219;-76
2022/12/10 03:27:57;;;;;;;91.60;25.70;;;;;;;;;;5055859;28;20661;-76
2022/12/10 03:30:24;;;;;;;88.57;25.38;;;;;;;;;;5054843;28;20235;-76
2022/12/10 03:32:52;;;;;;;90.35;24.23;;;;;;;;;;5055563;28;20217;-76
2022/12/10 03:35:20;;;;;;;86.65;23.85;;;;;;;;;;5056297;28;20208;-76
2022/12/10 03:37:49;;;;;;;89.13;25.10;;;;;;;;;;5056263;28;20208;-76
2022/12/10 03:40:17;;;;;;;88.18;25.30;;;;;;;;;;5057738;28;20730;-75
2022/12/10 03:42:45;;;;;;;89.30;26.17;;;;;;;;;;5076101;28;20228;-75
2022/12/10 03:45:12;;;;;;;85.63;23.75;;;;;;;;;;5076322;28;20215;-76
2022/12/10 03:47:39;;;;;;;89.05;24.77;;;;;;;;;;5075821;28;20617;-76
2022/12/10 03:50:06;;;;;;;91.00;24.92;;;;;;;;;;5074670;28;20229;-77
2022/12/10 03:52:33;;;;;;;89.72;24.67;;;;;;;;;;5075407;28;20208;-76
2022/12/10 03:55:03;;;;;;;90.00;24.77;;;;;;;;;;5075295;28;20742;-77
2022/12/10 03:57:30;;;;;;;91.53;25.00;;;;;;;;;;5075540;28;20254;-76
2022/12/10 03:59:57;;;;;;;91.68;26.13;;;;;;;;;;5074618;28;20263;-76
2022/12/10 04:02:24;;;;;;;88.60;26.08;;;;;;;;;;5075190;28;20560;-77
2022/12/10 04:04:51;;;;;;;89.63;26.70;;;;;;;;;;5075152;28;20205;-76
2022/12/10 04:07:18;;;;;;;91.68;24.60;;;;;;;;;;5075142;28;20209;-77
2022/12/10 04:09:45;;;;;;;86.05;23.63;;;;;;;;;;5074367;28;20236;-77
2022/12/10 04:12:14;;;;;;;91.75;24.83;;;;;;;;;;5074950;28;20683;-77
2022/12/10 04:17:26;;;;;;;92.07;24.23;;;;;;;;;;5075132;28;20263;-77
2022/12/10 04:19:53;;;;;;;90.13;25.13;;;;;;;;;;5074010;28;20221;-76
2022/12/10 04:27:51;;;;;;;89.20;25.30;;;;;;;;;;5074673;28;20206;-77
2022/12/10 04:30:18;;;;;;;89.00;24.67;;;;;;;;;;5074058;28;20226;-76
2022/12/10 04:32:45;;;;;;;87.75;24.75;;;;;;;;;;5075072;28;20205;-77
2022/12/10 04:35:12;;;;;;;92.97;26.67;;;;;;;;;;5075347;28;20217;-76
2022/12/10 04:37:39;;;;;;;91.43;26.95;;;;;;;;;;5075250;28;20213;-77
2022/12/10 04:40:07;;;;;;;92.10;25.67;;;;;;;;;;5074455;28;20331;-77
2022/12/10 04:42:34;;;;;;;89.65;25.80;;;;;;;;;;5075063;28;20207;-77
2022/12/10 04:45:03;;;;;;;87.97;24.85;;;;;;;;;;5075230;28;20205;-77
2022/12/10 04:47:30;;;;;;;95.53;26.05;;;;;;;;;;5075069;28;20208;-75
2022/12/10 04:49:57;;;;;;;92.13;26.77;;;;;;;;;;5073985;28;20271;-77
2022/12/10 04:52:24;;;;;;;94.38;27.45;;;;;;;;;;5074928;28;20556;-76
2022/12/10 04:54:51;;;;;;;90.22;24.98;;;;;;;;;;5075124;28;20213;-77
2022/12/10 04:57:18;;;;;;;98.13;27.80;;;;;;;;;;5074614;28;20216;-76
2022/12/10 04:59:45;;;;;;;90.72;25.13;;;;;;;;;;5074009;28;20221;-77
2022/12/10 05:02:14;;;;;;;89.40;25.40;;;;;;;;;;5074996;28;20671;-77
2022/12/10 05:04:41;;;;;;;95.05;26.90;;;;;;;;;;5074711;28;20677;-77
2022/12/10 05:07:08;;;;;;;87.30;24.90;;;;;;;;;;5074771;28;20384;-77
2022/12/10 05:09:35;;;;;;;88.57;25.58;;;;;;;;;;5073841;28;20316;-77
2022/12/10 05:12:02;;;;;;;86.35;23.98;;;;;;;;;;5075071;28;20217;-78
2022/12/10 05:14:30;;;;;;;90.20;24.83;;;;;;;;;;5074964;28;20205;-77
2022/12/10 05:16:57;;;;;;;86.25;24.17;;;;;;;;;;5074728;28;20785;-76
2022/12/10 05:19:26;;;;;;;86.63;25.15;;;;;;;;;;5074237;28;20249;-77
2022/12/10 05:24:38;;;;;;;91.45;26.50;;;;;;;;;;5074856;28;20267;-77
2022/12/10 05:27:05;;;;;;;88.50;26.02;;;;;;;;;;5074909;28;20213;-77
2022/12/10 05:29:33;;;;;;;89.93;23.10;;;;;;;;;;5074183;28;20636;-77
2022/12/10 05:32:00;;;;;;;89.45;23.92;;;;;;;;;;5074498;28;20212;-77
2022/12/10 05:34:29;;;;;;;93.20;26.52;;;;;;;;;;5074708;28;20281;-77
2022/12/10 05:36:56;;;;;;;91.80;25.60;;;;;;;;;;5074852;28;20208;-77
2022/12/10 05:39:23;;;;;;;88.15;26.75;;;;;;;;;;5074004;28;20223;-77
2022/12/10 05:41:50;;;;;;;91.57;26.55;;;;;;;;;;5074304;28;20237;-77
2022/12/10 05:44:17;;;;;;;94.30;28.50;;;;;;;;;;5074644;28;20234;-77
2022/12/10 05:46:44;;;;;;;93.10;28.55;;;;;;;;;;5074246;28;20695;-77
2022/12/10 05:49:11;;;;;;;92.30;27.05;;;;;;;;;;5072029;28;20205;-75
2022/12/10 05:51:40;;;;;;;93.40;28.10;;;;;;;;;;5072532;28;20202;-77
2022/12/10 05:54:08;;;;;;;83.82;22.73;;;;;;;;;;5073157;28;20210;-77
2022/12/10 05:56:36;;;;;;;87.43;23.30;;;;;;;;;;5073016;28;20209;-77
2022/12/10 05:59:04;;;;;;;88.03;25.15;;;;;;;;;;5072076;28;20211;-77
2022/12/10 06:01:32;;;;;;;88.75;24.85;;;;;;;;;;5072556;28;20205;-77
2022/12/10 06:04:00;;;;;;;89.78;26.45;;;;;;;;;;5072537;28;20206;-77
2022/12/10 06:06:28;;;;;;;89.38;26.30;;;;;;;;;;5072705;28;20216;-76
2022/12/10 06:08:57;;;;;;;89.50;25.23;;;;;;;;;;5071870;28;20207;-76
2022/12/10 06:11:24;;;;;;;90.50;25.60;;;;;;;;;;5072414;28;20366;-77
2022/12/10 06:13:51;;;;;;;86.30;23.17;;;;;;;;;;5072394;28;20210;-77
2022/12/10 06:16:18;;;;;;;92.47;24.17;;;;;;;;;;5072389;28;20225;-76
2022/12/10 06:18:45;;;;;;;94.95;26.77;;;;;;;;;;5071431;28;20211;-76
2022/12/10 06:21:14;;;;;;;89.50;24.10;;;;;;;;;;5072416;28;20250;-76
2022/12/10 06:23:42;;;;;;;84.65;23.75;;;;;;;;;;5072464;28;20528;-77
2022/12/10 06:26:11;;;;;;;87.63;24.65;;;;;;;;;;5072311;28;20308;-77
2022/12/10 06:28:39;;;;;;;88.20;22.95;;;;;;;;;;5071298;28;20207;-75
2022/12/10 06:31:07;;;;;;;92.50;24.65;;;;;;;;;;5072002;28;20230;-77
2022/12/10 06:33:34;;;;;;;94.88;26.13;;;;;;;;;;5072272;28;20210;-77
2022/12/10 06:36:01;;;;;;;91.00;24.02;;;;;;;;;;5072243;28;20224;-75
2022/12/10 06:38:28;;;;;;;90.05;24.63;;;;;;;;;;5071877;28;20211;-76
2022/12/10 06:40:55;;;;;;;102.95;32.85;;;;;;;;;;5071603;28;20226;-76
2022/12/10 06:43:23;;;;;;;92.13;26.98;;;;;;;;;;5071077;28;20212;-77
2022/12/10 06:45:51;;;;;;;90.85;26.35;;;;;;;;;;5071813;28;20209;-77
2022/12/10 06:48:18;;;;;;;87.93;25.33;;;;;;;;;;5072044;28;20253;-77
2022/12/10 06:50:45;;;;;;;93.45;28.15;;;;;;;;;;5071240;28;20256;-76
2022/12/10 06:53:12;;;;;;;95.13;28.25;;;;;;;;;;5073529;28;20213;-81
2022/12/10 06:55:40;;;;;;;89.68;29.30;;;;;;;;;;5081952;28;20301;-79
2022/12/10 06:58:07;;;;;;;91.63;27.60;;;;;;;;;;5078899;28;20236;-78
2022/12/10 07:00:35;;;;;;;88.75;24.58;;;;;;;;;;5080700;28;20221;-77
2022/12/10 07:03:02;;;;;;;86.47;24.48;;;;;;;;;;5077546;28;20209;-77
2022/12/10 07:05:29;;;;;;;84.70;23.23;;;;;;;;;;5071760;28;20205;-77
2022/12/10 07:07:56;;;;;;;86.43;23.25;;;;;;;;;;5071748;28;20235;-77
2022/12/10 07:10:24;;;;;;;91.35;26.05;;;;;;;;;;5070941;28;20310;-76
2022/12/10 07:12:51;;;;;;;88.75;24.92;;;;;;;;;;5071226;28;20206;-77
2022/12/10 07:15:18;;;;;;;91.43;25.05;;;;;;;;;;5071810;28;20205;-77
2022/12/10 07:17:47;;;;;;;91.40;26.23;;;;;;;;;;5071682;28;20204;-77
2022/12/10 07:20:14;;;;;;;88.28;24.10;;;;;;;;;;5070957;28;20568;-77
2022/12/10 07:22:41;;;;;;;91.63;25.40;;;;;;;;;;5071779;28;20211;-76
2022/12/10 07:25:08;;;;;;;90.80;24.05;;;;;;;;;;5071423;28;20214;-77
2022/12/10 07:27:35;;;;;;;92.22;24.45;;;;;;;;;;5071377;28;20333;-77
2022/12/10 07:30:02;;;;;;;89.78;24.77;;;;;;;;;;5070586;28;20231;-76
2022/12/10 07:32:30;;;;;;;87.28;24.63;;;;;;;;;;5071614;28;20205;-76
2022/12/10 07:34:58;;;;;;;90.22;26.60;;;;;;;;;;5071511;28;20586;-76
2022/12/10 07:37:25;;;;;;;85.53;24.13;;;;;;;;;;5071438;28;20203;-77
2022/12/10 07:39:52;;;;;;;84.82;23.92;;;;;;;;;;5070546;28;20218;-77
2022/12/10 07:42:19;;;;;;;88.78;23.90;;;;;;;;;;5071436;28;20221;-77
2022/12/10 07:44:46;;;;;;;84.97;23.25;;;;;;;;;;5071616;28;20205;-75
2022/12/10 07:47:14;;;;;;;89.18;23.90;;;;;;;;;;5071492;28;20215;-77
2022/12/10 07:49:41;;;;;;;87.43;24.20;;;;;;;;;;5070430;28;20241;-76
2022/12/10 07:52:10;;;;;;;91.35;26.52;;;;;;;;;;5071234;28;20210;-77
2022/12/10 07:54:37;;;;;;;86.50;23.63;;;;;;;;;;5073662;28;20236;-76
2022/12/10 07:57:04;;;;;;;87.22;25.35;;;;;;;;;;5075333;28;20206;-77
2022/12/10 07:59:31;;;;;;;86.88;24.45;;;;;;;;;;5073652;28;20317;-74
2022/12/10 08:01:58;;;;;;;89.78;24.15;;;;;;;;;;5067938;28;20201;-78
2022/12/10 08:04:28;;;;;;;89.65;24.83;;;;;;;;;;5077449;28;20753;-77
2022/12/10 08:06:56;;;;;;;85.80;23.35;;;;;;;;;;5076561;28;20206;-77
2022/12/10 08:09:24;;;;;;;93.05;25.27;;;;;;;;;;5076749;28;20234;-79
2022/12/10 08:11:51;;;;;;;91.70;26.70;;;;;;;;;;5077451;28;20231;-78
2022/12/10 08:14:18;;;;;;;91.45;26.65;;;;;;;;;;5078052;28;20248;-77
2022/12/10 08:16:45;;;;;;;93.35;25.42;;;;;;;;;;5077867;28;20203;-76
2022/12/10 08:19:12;;;;;;;96.28;30.30;;;;;;;;;;5076761;28;20231;-77
2022/12/10 08:21:40;;;;;;;93.85;27.77;;;;;;;;;;5076023;28;20208;-75
2022/12/10 08:24:07;;;;;;;91.65;27.25;;;;;;;;;;5074855;28;20230;-77
2022/12/10 08:26:35;;;;;;;89.75;25.65;;;;;;;;;;5074325;28;20223;-77
2022/12/10 08:29:03;;;;;;;87.40;24.75;;;;;;;;;;5073608;28;20241;-76
2022/12/10 08:31:30;;;;;;;87.88;24.73;;;;;;;;;;5074387;28;20326;-75
2022/12/10 08:33:57;;;;;;;87.82;24.88;;;;;;;;;;5074373;28;20297;-77
2022/12/10 08:36:24;;;;;;;88.35;25.20;;;;;;;;;;5074398;28;20205;-75
2022/12/10 08:38:51;;;;;;;87.13;25.48;;;;;;;;;;5073716;28;20203;-76
2022/12/10 08:41:19;;;;;;;90.40;25.27;;;;;;;;;;5074223;28;20593;-76
2022/12/10 08:43:48;;;;;;;87.65;25.17;;;;;;;;;;5074098;28;20224;-76
2022/12/10 08:46:16;;;;;;;91.60;25.58;;;;;;;;;;5074194;28;20315;-77
2022/12/10 08:48:43;;;;;;;88.43;23.40;;;;;;;;;;5073883;28;20300;-77
2022/12/10 08:51:12;;;;;;;86.88;23.33;;;;;;;;;;5074097;28;20234;-76
2022/12/10 08:53:39;;;;;;;85.65;23.60;;;;;;;;;;5074028;28;20672;-76
2022/12/10 08:56:06;;;;;;;86.10;24.90;;;;;;;;;;5074170;28;20207;-77
2022/12/10 08:58:33;;;;;;;84.07;22.63;;;;;;;;;;5073285;28;20212;-76
2022/12/10 09:01:06;;;;;;;88.57;23.25;;;;;;;;;;5072494;28;20615;-76
2022/12/10 09:03:33;;;;;;;86.05;24.27;;;;;;;;;;5073775;28;20216;-76
2022/12/10 09:06:03;;;;;;;91.70;24.80;;;;;;;;;;5072934;28;20209;-76
2022/12/10 09:08:30;;;;;;;86.63;23.08;;;;;;;;;;5073359;28;20204;-76
2022/12/10 09:10:57;;;;;;;88.90;24.52;;;;;;;;;;5073195;28;20604;-76
2022/12/10 09:13:24;;;;;;;82.05;23.55;;;;;;;;;;5073438;28;20219;-76
2022/12/10 09:15:52;;;;;;;88.97;23.10;;;;;;;;;;5073452;28;20228;-76
2022/12/10 09:18:20;;;;;;;85.72;22.55;;;;;;;;;;5073564;28;20268;-77
2022/12/10 09:20:47;;;;;;;83.80;23.00;;;;;;;;;;5072993;28;20227;-76
2022/12/10 09:23:15;;;;;;;84.63;22.15;;;;;;;;;;5073468;28;20213;-77
2022/12/10 09:25:42;;;;;;;84.60;22.42;;;;;;;;;;5073179;28;20221;-76
2022/12/10 09:28:09;;;;;;;82.05;21.30;;;;;;;;;;5073117;28;20553;-76
2022/12/10 09:30:36;;;;;;;80.43;21.10;;;;;;;;;;5072322;28;20231;-77
2022/12/10 09:33:03;;;;;;;84.55;22.10;;;;;;;;;;5073300;28;20208;-76
2022/12/10 09:35:32;;;;;;;87.65;21.65;;;;;;;;;;5073291;28;20555;-77
2022/12/10 09:37:59;;;;;;;84.55;21.48;;;;;;;;;;5073031;28;20210;-77
2022/12/10 09:40:31;;;;;;;83.03;22.20;;;;;;;;;;5072288;28;20225;-76
2022/12/10 09:43:02;;;;;;;84.82;22.50;;;;;;;;;;5072991;28;20216;-75
2022/12/10 09:45:33;;;;;;;83.60;21.80;;;;;;;;;;5073121;28;20207;-77
2022/12/10 09:48:03;;;;;;;84.55;23.27;;;;;;;;;;5072992;28;20298;-77
2022/12/10 09:50:36;;;;;;;85.72;21.45;;;;;;;;;;5072142;28;20232;-76
2022/12/10 09:53:04;;;;;;;83.22;20.25;;;;;;;;;;5072883;28;20215;-76
2022/12/10 09:55:33;;;;;;;85.43;22.73;;;;;;;;;;5072697;28;20215;-76
2022/12/10 09:58:01;;;;;;;83.32;21.80;;;;;;;;;;5072813;28;20207;-76
2022/12/10 10:00:33;;;;;;;83.60;20.77;;;;;;;;;;5072048;28;20738;-75
2022/12/10 10:03:01;;;;;;;78.25;19.45;;;;;;;;;;5072747;28;20297;-76
2022/12/10 10:05:29;;;;;;;85.68;21.45;;;;;;;;;;5072670;28;20240;-76
2022/12/10 10:07:59;;;;;;;82.53;21.33;;;;;;;;;;5072460;28;20238;-76
2022/12/10 10:10:27;;;;;;;90.68;21.42;;;;;;;;;;5071852;28;20269;-76
2022/12/10 10:12:56;;;;;;;83.13;21.95;;;;;;;;;;5072382;28;20295;-76
2022/12/10 10:15:26;;;;;;;82.78;21.98;;;;;;;;;;5072212;28;20212;-76
2022/12/10 10:17:55;;;;;;;94.63;24.05;;;;;;;;;;5072235;28;20556;-76
2022/12/10 10:20:22;;;;;;;83.90;20.88;;;;;;;;;;5071104;28;20582;-77
2022/12/10 10:22:49;;;;;;;87.35;22.40;;;;;;;;;;5069080;28;20209;-76
2022/12/10 10:25:19;;;;;;;84.93;22.27;;;;;;;;;;5062179;28;20211;-77
2022/12/10 10:27:47;;;;;;;85.15;24.08;;;;;;;;;;5053990;28;20752;-77
2022/12/10 10:30:18;;;;;;;84.78;22.95;;;;;;;;;;5051271;28;20239;-77
2022/12/10 10:32:49;;;;;;;85.25;22.30;;;;;;;;;;5052420;28;20216;-75
2022/12/10 10:35:22;;;;;;;84.55;21.77;;;;;;;;;;5052066;28;20723;-76
2022/12/10 10:37:49;;;;;;;83.53;22.70;;;;;;;;;;5052119;28;20205;-75
2022/12/10 10:40:24;;;;;;;80.95;21.73;;;;;;;;;;5051275;28;20241;-77
2022/12/10 10:42:54;;;;;;;83.22;21.35;;;;;;;;;;5051892;28;20673;-76
2022/12/10 10:45:34;;;;;;;84.53;22.50;;;;;;;;;;5051733;28;20215;-77
2022/12/10 10:48:05;;;;;;;84.60;21.55;;;;;;;;;;5051958;28;20209;-77
2022/12/10 10:50:37;;;;;;;84.18;20.50;;;;;;;;;;5050701;28;20716;-77
2022/12/10 10:53:21;;;;;;;82.25;22.02;;;;;;;;;;5051748;28;20219;-77
2022/12/10 10:55:50;;;;;;;82.55;21.50;;;;;;;;;;5052079;28;20288;-77
2022/12/10 10:58:19;;;;;;;81.90;21.30;;;;;;;;;;5051929;28;20680;-76
2022/12/10 11:00:54;;;;;;;83.50;21.42;;;;;;;;;;5051098;28;20225;-76
2022/12/10 11:03:22;;;;;;;83.88;22.05;;;;;;;;;;5051892;28;20213;-76
2022/12/10 11:05:50;;;;;;;84.35;22.15;;;;;;;;;;5051692;28;20208;-76
2022/12/10 11:08:20;;;;;;;81.38;20.20;;;;;;;;;;5051357;28;20634;-76
2022/12/10 11:10:53;;;;;;;82.00;22.13;;;;;;;;;;5050990;28;20226;-76
2022/12/10 11:13:23;;;;;;;80.68;20.83;;;;;;;;;;5051625;28;20670;-77
2022/12/10 11:15:56;;;;;;;80.65;20.08;;;;;;;;;;5051596;28;20212;-76
2022/12/10 11:18:25;;;;;;;83.50;20.63;;;;;;;;;;5051533;28;20219;-76
2022/12/10 11:20:58;;;;;;;80.53;20.80;;;;;;;;;;5050739;28;20323;-75
2022/12/10 11:23:28;;;;;;;79.65;19.83;;;;;;;;;;5051687;28;20224;-77
2022/12/10 11:25:59;;;;;;;86.18;20.65;;;;;;;;;;5051807;28;20244;-77
2022/12/10 11:28:33;;;;;;;78.35;18.65;;;;;;;;;;5051727;28;20216;-76
2022/12/10 11:31:04;;;;;;;82.03;19.00;;;;;;;;;;5055284;28;20598;-77
2022/12/10 11:33:35;;;;;;;83.80;22.02;;;;;;;;;;5055646;28;20219;-76
2022/12/10 11:36:07;;;;;;;79.90;19.85;;;;;;;;;;5055568;28;20781;-76
2022/12/10 11:38:39;;;;;;;85.00;22.05;;;;;;;;;;5054561;28;20225;-76
2022/12/10 11:41:12;;;;;;;79.90;19.02;;;;;;;;;;5061386;28;20221;-77
2022/12/10 11:43:44;;;;;;;83.50;21.58;;;;;;;;;;5075149;28;20580;-77
2022/12/10 11:46:18;;;;;;;80.78;19.90;;;;;;;;;;5075022;28;20208;-76
2022/12/10 11:48:57;;;;;;;80.05;18.85;;;;;;;;;;5074594;28;20209;-77
2022/12/10 11:51:30;;;;;;;81.65;19.35;;;;;;;;;;5074403;28;20232;-76
2022/12/10 11:54:03;;;;;;;80.40;20.42;;;;;;;;;;5074764;28;20205;-75
2022/12/10 11:56:35;;;;;;;83.35;22.17;;;;;;;;;;5074443;28;20201;-77
2022/12/10 11:59:15;;;;;;;84.38;21.05;;;;;;;;;;5073668;28;20253;-77
2022/12/10 12:01:53;;;;;;;82.65;20.83;;;;;;;;;;5074316;28;20569;-77
2022/12/10 12:04:26;;;;;;;84.35;20.10;;;;;;;;;;5078947;28;20205;-78
2022/12/10 12:07:17;;;;;;;83.90;19.37;;;;;;;;;;5080208;28;20232;-78
2022/12/10 12:09:52;;;;;;;80.88;19.95;;;;;;;;;;5061701;28;20561;-78
2022/12/10 12:12:28;;;;;;;81.80;20.10;;;;;;;;;;5077647;28;20224;-79
2022/12/10 12:14:58;;;;;;;84.10;20.20;;;;;;;;;;5079528;28;20208;-79
2022/12/10 12:17:28;;;;;;;81.60;20.50;;;;;;;;;;5076747;28;20287;-77
2022/12/10 12:19:57;;;;;;;85.00;21.70;;;;;;;;;;5074531;28;20502;-77
2022/12/10 12:22:26;;;;;;;79.33;20.50;;;;;;;;;;5074656;28;20458;-76
2022/12/10 12:24:55;;;;;;;77.60;18.88;;;;;;;;;;5073857;28;20457;-77
2022/12/10 12:27:27;;;;;;;81.38;20.20;;;;;;;;;;5074646;28;20212;-77
2022/12/10 12:30:02;;;;;;;80.28;19.08;;;;;;;;;;5074063;28;20229;-77
2022/12/10 12:32:32;;;;;;;84.33;23.10;;;;;;;;;;5074655;28;20778;-77
2022/12/10 12:35:01;;;;;;;77.85;19.23;;;;;;;;;;5074893;28;20989;-77
2022/12/10 12:37:31;;;;;;;81.30;18.15;;;;;;;;;;5075969;28;20296;-77
2022/12/10 12:40:02;;;;;;;80.97;18.97;;;;;;;;;;5074806;28;20296;-77
2022/12/10 12:42:32;;;;;;;79.00;19.35;;;;;;;;;;5076173;28;20518;-78
2022/12/10 12:45:03;;;;;;;79.18;19.67;;;;;;;;;;5076254;28;20209;-78
2022/12/10 12:47:36;;;;;;;81.70;18.80;;;;;;;;;;5075283;28;20204;-77
2022/12/10 12:50:05;;;;;;;77.50;18.88;;;;;;;;;;5074162;28;20235;-75
2022/12/10 12:52:37;;;;;;;81.35;19.20;;;;;;;;;;5074588;28;20225;-77
2022/12/10 12:55:08;;;;;;;80.35;20.30;;;;;;;;;;5075456;28;20231;-78
2022/12/10 12:57:42;;;;;;;80.88;19.63;;;;;;;;;;5075411;28;20689;-76
2022/12/10 13:00:13;;;;;;;78.40;19.20;;;;;;;;;;5073554;28;20221;-77
2022/12/10 13:02:50;;;;;;;77.27;17.97;;;;;;;;;;5074176;28;20455;-77
2022/12/10 13:05:19;;;;;;;80.88;19.05;;;;;;;;;;5074370;28;20603;-77
2022/12/10 13:08:06;;;;;;;80.93;20.02;;;;;;;;;;5074264;28;20587;-77
2022/12/10 13:10:45;;;;;;;75.47;16.75;;;;;;;;;;5073379;28;20595;-77
2022/12/10 13:13:25;;;;;;;77.80;18.38;;;;;;;;;;5073694;28;20231;-76
2022/12/10 13:15:52;;;;;;;77.10;18.57;;;;;;;;;;5074254;28;20205;-77
2022/12/10 13:18:24;;;;;;;79.05;19.75;;;;;;;;;;5074122;28;20450;-77
2022/12/10 13:20:53;;;;;;;85.43;21.73;;;;;;;;;;5073240;28;20600;-77
2022/12/10 13:23:34;;;;;;;74.27;16.60;;;;;;;;;;5073681;28;20700;-76
2022/12/10 13:26:01;;;;;;;77.68;18.15;;;;;;;;;;5073791;28;20466;-77
2022/12/10 13:28:31;;;;;;;76.78;17.83;;;;;;;;;;5073470;28;20297;-76
2022/12/10 13:31:10;;;;;;;79.70;19.40;;;;;;;;;;5073755;28;20247;-77
2022/12/10 13:33:48;;;;;;;79.35;18.73;;;;;;;;;;5073472;28;20300;-76
2022/12/10 13:36:15;;;;;;;78.70;17.80;;;;;;;;;;5074009;28;20197;-77
2022/12/10 13:38:43;;;;;;;74.75;17.20;;;;;;;;;;5073159;28;20211;-77
2022/12/10 13:46:53;;;;;;;80.20;17.77;;;;;;;;;;5074041;28;20258;-77
2022/12/10 13:49:21;;;;;;;75.85;17.60;;;;;;;;;;5073009;28;20204;-77
2022/12/10 13:51:53;;;;;;;79.65;19.77;;;;;;;;;;5072809;28;20243;-77
2022/12/10 13:54:27;;;;;;;73.93;17.00;;;;;;;;;;5073061;28;20257;-76
2022/12/10 13:56:59;;;;;;;77.57;16.65;;;;;;;;;;5072875;28;20250;-75
2022/12/10 13:59:32;;;;;;;75.85;16.17;;;;;;;;;;5072202;28;20317;-76
2022/12/10 14:02:12;;;;;;;76.40;16.77;;;;;;;;;;5073075;28;20326;-77
2022/12/10 14:04:54;;;;;;;74.18;16.55;;;;;;;;;;5072920;28;20280;-77
2022/12/10 14:07:21;;;;;;;75.45;17.60;;;;;;;;;;5073913;28;20302;-76
2022/12/10 14:09:51;;;;;;;77.88;17.95;;;;;;;;;;5071975;28;20242;-76
2022/12/10 14:12:19;;;;;;;77.82;17.67;;;;;;;;;;5072534;28;20224;-76
2022/12/10 14:14:50;;;;;;;77.57;18.52;;;;;;;;;;5072486;28;20608;-77
2022/12/10 14:17:19;;;;;;;79.15;19.42;;;;;;;;;;5072296;28;20300;-75
2022/12/10 14:19:47;;;;;;;80.85;19.10;;;;;;;;;;5071310;28;20239;-76
2022/12/10 14:22:17;;;;;;;76.75;17.83;;;;;;;;;;5072476;28;20226;-77
2022/12/10 14:24:44;;;;;;;76.45;17.00;;;;;;;;;;5072378;28;20215;-77
2022/12/10 14:27:14;;;;;;;77.18;17.67;;;;;;;;;;5072004;28;20220;-76
2022/12/10 14:29:44;;;;;;;76.65;17.88;;;;;;;;;;5071392;28;20230;-76
2022/12/10 14:32:15;;;;;;;77.60;16.90;;;;;;;;;;5071927;28;20224;-74
2022/12/10 14:34:43;;;;;;;79.25;17.98;;;;;;;;;;5072407;28;20229;-76
2022/12/10 14:37:14;;;;;;;77.45;17.55;;;;;;;;;;5072028;28;20694;-76
2022/12/10 14:39:41;;;;;;;80.82;17.38;;;;;;;;;;5071332;28;20281;-77
2022/12/10 14:42:14;;;;;;;77.38;16.95;;;;;;;;;;5072208;28;20748;-76
2022/12/10 14:44:41;;;;;;;78.25;16.90;;;;;;;;;;5071861;28;20208;-77